createdAt,value
2019-05-10T00:00:54.110Z,11.33
2019-05-10T00:03:45.495Z,11.32
2019-05-10T00:06:38.061Z,11.17
2019-05-10T00:09:10.958Z,11.35
2019-05-10T00:12:02.653Z,11.27
2019-05-10T00:15:01.848Z,11.19
2019-05-10T00:17:35.589Z,11.16
2019-05-10T00:20:10.893Z,10.97
2019-05-10T00:22:45.827Z,10.93
2019-05-10T00:25:21.374Z,10.86
2019-05-10T00:27:55.380Z,10.81
2019-05-10T00:30:30.321Z,10.78
2019-05-10T00:33:04.340Z,10.70
2019-05-10T00:35:37.997Z,10.60
2019-05-10T00:38:12.005Z,10.55
2019-05-10T00:40:48.012Z,10.59
2019-05-10T00:43:22.207Z,10.52
2019-05-10T00:45:57.567Z,10.53
2019-05-10T00:48:31.283Z,10.58
2019-05-10T00:51:04.928Z,10.55
2019-05-10T00:53:41.531Z,10.55
2019-05-10T00:56:15.654Z,10.38
2019-05-10T00:58:49.371Z,10.32
2019-05-10T01:01:24.398Z,10.29
2019-05-10T01:03:58.525Z,10.31
2019-05-10T01:06:34.487Z,10.20
2019-05-10T01:09:11.570Z,10.08
2019-05-10T01:11:45.985Z,10.01
2019-05-10T01:14:19.921Z,9.97
2019-05-10T01:16:53.925Z,9.95
2019-05-10T01:19:27.656Z,9.90
2019-05-10T01:22:01.731Z,9.78
2019-05-10T01:24:35.402Z,9.78
2019-05-10T01:27:13.235Z,9.81
2019-05-10T01:29:47.172Z,9.78
2019-05-10T01:32:21.061Z,9.74
2019-05-10T01:34:54.918Z,9.86
2019-05-10T01:37:30.410Z,9.78
2019-05-10T01:40:05.504Z,9.90
2019-05-10T01:42:39.145Z,9.91
2019-05-10T01:45:14.085Z,9.87
2019-05-10T01:47:48.816Z,9.91
2019-05-10T01:50:23.792Z,9.95
2019-05-10T01:52:57.861Z,10.00
2019-05-10T01:55:31.911Z,9.89
2019-05-10T01:58:08.418Z,9.81
2019-05-10T02:00:42.205Z,9.82
2019-05-10T02:03:15.871Z,9.79
2019-05-10T02:05:49.662Z,9.74
2019-05-10T02:08:23.475Z,9.61
2019-05-10T02:10:57.179Z,9.54
2019-05-10T02:13:34.248Z,9.55
2019-05-10T02:16:08.308Z,9.49
2019-05-10T02:18:43.047Z,9.48
2019-05-10T02:21:17.274Z,9.39
2019-05-10T02:23:50.953Z,9.43
2019-05-10T02:26:25.083Z,9.44
2019-05-10T02:28:59.169Z,9.43
2019-05-10T02:31:33.474Z,9.41
2019-05-10T02:34:07.293Z,9.41
2019-05-10T02:36:40.966Z,9.41
2019-05-10T02:39:14.822Z,9.52
2019-05-10T02:41:49.630Z,9.60
2019-05-10T02:44:23.357Z,9.72
2019-05-10T02:46:57.122Z,9.81
2019-05-10T02:49:30.804Z,9.91
2019-05-10T02:52:04.808Z,9.99
2019-05-10T02:54:38.773Z,9.98
2019-05-10T02:57:14.568Z,10.14
2019-05-10T02:59:50.429Z,10.26
2019-05-10T03:02:26.115Z,10.29
2019-05-10T03:05:03.308Z,10.33
2019-05-10T03:07:40.122Z,10.33
2019-05-10T03:10:14.522Z,10.34
2019-05-10T03:12:52.583Z,10.45
2019-05-10T03:15:30.645Z,10.41
2019-05-10T03:18:05.598Z,10.56
2019-05-10T03:20:40.392Z,10.49
2019-05-10T03:23:14.822Z,10.53
2019-05-10T03:25:48.675Z,10.53
2019-05-10T03:28:22.678Z,10.56
2019-05-10T03:30:57.192Z,10.56
2019-05-10T03:33:31.311Z,10.59
2019-05-10T03:36:05.080Z,10.70
2019-05-10T03:38:39.058Z,10.74
2019-05-10T03:41:12.815Z,10.75
2019-05-10T03:43:47.727Z,10.76
2019-05-10T03:46:21.358Z,10.75
2019-05-10T03:48:56.897Z,10.80
2019-05-10T03:51:30.691Z,10.72
2019-05-10T03:54:04.741Z,10.81
2019-05-10T03:56:38.411Z,10.76
2019-05-10T03:59:12.212Z,10.81
2019-05-10T04:01:46.028Z,10.80
2019-05-10T04:04:19.634Z,10.83
2019-05-10T04:06:53.439Z,11.00
2019-05-10T04:09:28.987Z,11.09
2019-05-10T04:12:03.510Z,11.10
2019-05-10T04:14:37.218Z,11.10
2019-05-10T04:17:12.150Z,11.09
2019-05-10T04:19:45.854Z,10.99
2019-05-10T04:22:20.592Z,10.99
2019-05-10T04:24:57.344Z,10.94
2019-05-10T04:27:33.274Z,10.95
2019-05-10T04:30:08.721Z,10.94
2019-05-10T04:32:42.391Z,10.99
2019-05-10T04:35:16.124Z,10.97
2019-05-10T04:37:50.118Z,10.95
2019-05-10T04:40:23.792Z,10.99
2019-05-10T04:42:59.218Z,10.97
2019-05-10T04:45:33.872Z,11.02
2019-05-10T04:48:08.148Z,11.07
2019-05-10T04:50:48.264Z,11.22
2019-05-10T04:53:19.244Z,11.21
2019-05-10T04:55:52.918Z,11.17
2019-05-10T04:58:26.834Z,11.34
2019-05-10T05:01:00.650Z,11.27
2019-05-10T05:03:34.617Z,11.41
2019-05-10T05:06:10.089Z,11.38
2019-05-10T05:08:43.687Z,11.39
2019-05-10T05:11:17.815Z,11.38
2019-05-10T05:13:51.546Z,11.41
2019-05-10T05:16:26.334Z,11.37
2019-05-10T05:19:01.653Z,11.49
2019-05-10T05:21:35.673Z,11.53
2019-05-10T05:24:10.734Z,11.59
2019-05-10T05:26:44.921Z,11.63
2019-05-10T05:29:18.606Z,11.64
2019-05-10T05:31:53.885Z,11.84
2019-05-10T05:34:29.927Z,11.87
2019-05-10T05:37:03.554Z,12.16
2019-05-10T05:39:37.325Z,12.36
2019-05-10T05:42:11.046Z,13.09
2019-05-10T05:44:44.858Z,14.31
2019-05-10T05:47:20.422Z,14.95
2019-05-10T05:49:54.103Z,16.19
2019-05-10T05:52:27.769Z,15.19
2019-05-10T05:55:01.802Z,14.54
2019-05-10T05:57:35.573Z,14.06
2019-05-10T06:00:11.179Z,13.78
2019-05-10T06:02:46.738Z,13.73
2019-05-10T06:05:33.953Z,13.86
2019-05-10T06:07:56.136Z,13.95
2019-05-10T06:10:29.905Z,13.96
2019-05-10T06:13:05.032Z,13.79
2019-05-10T06:15:38.959Z,14.24
2019-05-10T06:18:14.289Z,14.23
2019-05-10T06:20:49.639Z,17.11
2019-05-10T06:23:23.367Z,17.34
2019-05-10T06:25:57.139Z,17.77
2019-05-10T06:28:56.974Z,19.56
2019-05-10T06:31:07.609Z,20.10
2019-05-10T06:33:45.053Z,20.95
2019-05-10T06:36:19.025Z,20.61
2019-05-10T06:38:54.467Z,20.80
2019-05-10T06:41:32.266Z,21.69
2019-05-10T06:44:04.163Z,21.50
2019-05-10T06:46:37.886Z,21.86
2019-05-10T06:49:11.674Z,22.43
2019-05-10T06:51:49.092Z,22.87
2019-05-10T06:54:22.099Z,20.63
2019-05-10T06:56:56.986Z,19.81
2019-05-10T06:59:30.992Z,18.24
2019-05-10T07:02:04.768Z,17.19
2019-05-10T07:04:41.308Z,16.65
2019-05-10T07:07:26.951Z,16.37
2019-05-10T07:10:09.977Z,15.79
2019-05-10T07:12:30.289Z,15.76
2019-05-10T07:15:06.184Z,15.82
2019-05-10T07:17:43.615Z,16.11
2019-05-10T07:20:16.234Z,15.71
2019-05-10T07:22:49.814Z,16.21
2019-05-10T07:25:23.543Z,16.25
2019-05-10T07:27:59.882Z,15.84
2019-05-10T07:30:36.643Z,15.79
2019-05-10T07:33:10.379Z,15.59
2019-05-10T07:35:46.092Z,15.51
2019-05-10T07:38:23.450Z,15.75
2019-05-10T07:40:56.255Z,15.90
2019-05-10T07:43:30.059Z,15.93
2019-05-10T07:46:08.958Z,16.21
2019-05-10T07:48:41.107Z,15.86
2019-05-10T07:51:16.732Z,15.67
2019-05-10T07:53:50.438Z,15.48
2019-05-10T07:56:25.495Z,15.76
2019-05-10T07:59:00.663Z,15.45
2019-05-10T08:01:37.563Z,15.02
2019-05-10T08:04:13.230Z,14.74
2019-05-10T08:06:48.778Z,14.53
2019-05-10T08:09:23.870Z,14.51
2019-05-10T08:12:03.306Z,14.19
2019-05-10T08:14:33.155Z,13.89
2019-05-10T08:17:09.075Z,13.79
2019-05-10T08:19:42.559Z,13.66
2019-05-10T08:22:17.440Z,13.65
2019-05-10T08:24:56.023Z,13.39
2019-05-10T08:27:26.780Z,13.59
2019-05-10T08:30:25.698Z,13.62
2019-05-10T08:32:36.045Z,13.62
2019-05-10T08:35:15.922Z,13.46
2019-05-10T08:37:45.838Z,13.67
2019-05-10T08:40:24.458Z,13.60
2019-05-10T08:43:04.878Z,13.75
2019-05-10T08:45:38.937Z,13.84
2019-05-10T08:48:09.864Z,14.01
2019-05-10T08:50:52.746Z,14.03
2019-05-10T08:53:19.444Z,14.10
2019-05-10T08:55:53.115Z,13.90
2019-05-10T08:58:31.444Z,13.66
2019-05-10T09:01:16.223Z,13.55
2019-05-10T09:03:38.963Z,13.62
2019-05-10T09:06:16.629Z,13.28
2019-05-10T09:08:52.868Z,13.53
2019-05-10T09:11:27.142Z,13.47
2019-05-10T09:14:03.227Z,13.52
2019-05-10T09:16:46.189Z,13.58
2019-05-10T09:19:18.717Z,13.52
2019-05-10T09:21:54.790Z,13.54
2019-05-10T09:24:29.591Z,13.50
2019-05-10T09:27:03.626Z,13.31
2019-05-10T09:29:37.644Z,13.22
2019-05-10T09:32:14.007Z,13.09
2019-05-10T09:34:48.247Z,13.09
2019-05-10T09:37:22.848Z,13.02
2019-05-10T09:40:05.828Z,12.83
2019-05-10T09:42:39.774Z,12.95
2019-05-10T09:45:09.785Z,13.11
2019-05-10T09:47:44.821Z,13.12
2019-05-10T09:50:22.936Z,13.35
2019-05-10T09:52:56.493Z,13.38
2019-05-10T09:55:30.365Z,13.19
2019-05-10T09:58:04.081Z,13.36
2019-05-10T10:00:40.375Z,13.42
2019-05-10T10:03:13.990Z,13.21
2019-05-10T10:05:48.370Z,13.20
2019-05-10T10:08:23.476Z,13.02
2019-05-10T10:11:04.925Z,13.01
2019-05-10T10:13:40.146Z,13.23
2019-05-10T10:16:14.544Z,13.53
2019-05-10T10:18:47.675Z,13.60
2019-05-10T10:21:30.583Z,14.13
2019-05-10T10:24:00.044Z,14.49
2019-05-10T10:26:32.239Z,14.81
2019-05-10T10:29:07.342Z,14.75
2019-05-10T10:31:51.408Z,14.77
2019-05-10T10:34:17.391Z,14.97
2019-05-10T10:36:51.203Z,15.46
2019-05-10T10:39:24.991Z,15.99
2019-05-10T10:42:02.410Z,15.96
2019-05-10T10:44:34.274Z,15.37
2019-05-10T10:47:08.429Z,15.16
2019-05-10T10:49:42.376Z,14.54
2019-05-10T10:52:17.823Z,14.53
2019-05-10T10:54:53.889Z,14.13
2019-05-10T10:57:28.001Z,14.12
2019-05-10T11:00:02.172Z,13.97
2019-05-10T11:02:36.914Z,13.97
2019-05-10T11:05:11.372Z,14.13
2019-05-10T11:07:47.746Z,14.50
2019-05-10T11:10:26.451Z,14.76
2019-05-10T11:13:05.779Z,15.16
2019-05-10T11:15:37.049Z,15.56
2019-05-10T11:18:11.255Z,16.04
2019-05-10T11:20:49.529Z,16.16
2019-05-10T11:23:26.855Z,16.63
2019-05-10T11:26:01.211Z,16.63
2019-05-10T11:28:38.637Z,17.26
2019-05-10T11:31:11.726Z,17.79
2019-05-10T11:33:47.415Z,18.04
2019-05-10T11:36:22.770Z,18.08
2019-05-10T11:38:58.670Z,17.23
2019-05-10T11:41:32.025Z,16.90
2019-05-10T11:44:11.241Z,16.85
2019-05-10T11:46:44.339Z,17.02
2019-05-10T11:49:20.448Z,17.79
2019-05-10T11:51:58.532Z,17.36
2019-05-10T11:54:31.719Z,16.72
2019-05-10T11:57:10.930Z,16.57
2019-05-10T11:59:42.061Z,16.21
2019-05-10T12:02:35.323Z,16.22
2019-05-10T12:04:53.192Z,16.19
2019-05-10T12:07:38.746Z,16.17
2019-05-10T12:10:12.278Z,16.00
2019-05-10T12:12:54.431Z,15.60
2019-05-10T12:15:15.039Z,15.74
2019-05-10T12:20:39.537Z,16.33
2019-05-10T12:23:03.359Z,16.41
2019-05-10T12:25:53.217Z,16.36
2019-05-10T12:26:47.918Z,15.93
2019-05-10T12:28:15.519Z,16.19
2019-05-10T12:30:51.130Z,15.59
2019-05-10T12:33:27.518Z,15.58
2019-05-10T12:36:00.452Z,15.39
2019-05-10T12:38:35.956Z,15.10
2019-05-10T12:41:09.688Z,15.21
2019-05-10T12:43:48.358Z,15.45
2019-05-10T12:46:20.999Z,15.73
2019-05-10T12:48:55.164Z,15.86
2019-05-10T12:51:31.168Z,15.71
2019-05-10T12:54:04.063Z,16.18
2019-05-10T12:56:44.081Z,16.50
2019-05-10T12:59:16.181Z,16.47
2019-05-10T13:01:50.845Z,16.83
2019-05-10T13:04:39.677Z,17.20
2019-05-10T13:07:02.106Z,17.63
2019-05-10T13:09:40.633Z,17.94
2019-05-10T13:12:12.581Z,17.83
2019-05-10T13:14:52.240Z,17.94
2019-05-10T13:17:21.835Z,18.12
2019-05-10T13:19:58.504Z,17.59
2019-05-10T13:22:37.102Z,17.23
2019-05-10T13:25:07.500Z,17.63
2019-05-10T13:27:41.303Z,17.36
2019-05-10T13:30:16.022Z,17.73
2019-05-10T13:32:52.835Z,17.35
2019-05-10T13:35:28.021Z,17.00
2019-05-10T13:38:04.499Z,16.64
2019-05-10T13:40:45.323Z,16.31
2019-05-10T13:43:17.235Z,16.45
2019-05-10T13:45:50.489Z,16.58
2019-05-10T13:48:26.480Z,17.45
2019-05-10T13:51:00.037Z,17.29
2019-05-10T13:53:34.205Z,17.72
2019-05-10T13:56:07.898Z,18.02
2019-05-10T13:58:41.788Z,18.00
2019-05-10T14:01:15.509Z,17.91
2019-05-10T14:03:59.833Z,17.31
2019-05-10T14:06:24.773Z,16.97
2019-05-10T14:08:58.614Z,17.01
2019-05-10T14:11:34.166Z,16.88
2019-05-10T14:14:14.707Z,16.78
2019-05-10T14:16:48.621Z,16.54
2019-05-10T14:19:23.646Z,16.58
2019-05-10T14:21:58.503Z,17.04
2019-05-10T14:24:36.157Z,17.10
2019-05-10T14:27:09.859Z,17.18
2019-05-10T14:29:43.974Z,17.35
2019-05-10T14:32:20.557Z,17.33
2019-05-10T14:34:54.359Z,17.68
2019-05-10T14:37:29.207Z,17.90
2019-05-10T14:40:03.309Z,17.74
2019-05-10T14:42:39.574Z,17.93
2019-05-10T14:45:16.164Z,17.77
2019-05-10T14:47:51.428Z,17.37
2019-05-10T14:50:26.785Z,17.03
2019-05-10T14:53:00.975Z,16.90
2019-05-10T14:55:36.809Z,16.99
2019-05-10T14:58:13.572Z,16.57
2019-05-10T15:00:47.276Z,16.53
2019-05-10T15:03:22.321Z,16.72
2019-05-10T15:06:00.951Z,16.38
2019-05-10T15:08:31.900Z,16.69
2019-05-10T15:11:05.905Z,16.99
2019-05-10T15:13:40.615Z,16.64
2019-05-10T15:16:25.744Z,16.45
2019-05-10T15:18:52.545Z,16.51
2019-05-10T15:21:26.209Z,16.50
2019-05-10T15:24:00.991Z,16.26
2019-05-10T15:26:37.653Z,16.66
2019-05-10T15:29:15.040Z,16.86
2019-05-10T15:31:48.407Z,16.83
2019-05-10T15:34:22.230Z,16.71
2019-05-10T15:37:02.569Z,16.72
2019-05-10T15:39:32.794Z,16.27
2019-05-10T15:42:06.707Z,16.21
2019-05-10T15:44:43.234Z,16.33
2019-05-10T15:47:20.464Z,16.33
2019-05-10T15:49:54.476Z,16.12
2019-05-10T15:52:31.164Z,15.99
2019-05-10T15:55:05.041Z,16.07
2019-05-10T15:57:39.814Z,16.29
2019-05-10T16:00:15.655Z,16.64
2019-05-10T16:02:53.100Z,16.48
2019-05-10T16:05:42.435Z,16.15
2019-05-10T16:08:05.925Z,16.68
2019-05-10T16:10:40.966Z,16.78
2019-05-10T16:13:23.256Z,16.81
2019-05-10T16:15:51.434Z,16.33
2019-05-10T16:18:27.255Z,15.58
2019-05-10T16:21:00.946Z,15.40
2019-05-10T16:23:46.652Z,15.38
2019-05-10T16:26:23.083Z,15.30
2019-05-10T16:29:01.303Z,15.36
2019-05-10T16:31:29.507Z,15.39
2019-05-10T16:34:03.171Z,15.82
2019-05-10T16:36:37.418Z,15.59
2019-05-10T16:39:11.336Z,15.65
2019-05-10T16:41:46.202Z,15.48
2019-05-10T16:44:21.050Z,15.47
2019-05-10T16:46:55.244Z,15.49
2019-05-10T16:49:47.790Z,15.56
2019-05-10T16:52:19.518Z,15.33
2019-05-10T16:55:02.905Z,14.91
2019-05-10T16:57:37.502Z,14.87
2019-05-10T17:00:13.121Z,14.77
2019-05-10T17:02:48.492Z,14.80
2019-05-10T17:05:23.493Z,14.65
2019-05-10T17:07:58.748Z,14.81
2019-05-10T17:10:34.719Z,14.73
2019-05-10T17:13:09.199Z,14.73
2019-05-10T17:15:44.609Z,14.77
2019-05-10T17:18:20.020Z,14.71
2019-05-10T17:20:55.334Z,14.81
2019-05-10T17:23:32.119Z,14.91
2019-05-10T17:26:07.404Z,14.49
2019-05-10T17:28:41.419Z,14.42
2019-05-10T17:31:19.432Z,14.59
2019-05-10T17:33:53.319Z,14.54
2019-05-10T17:36:28.169Z,14.49
2019-05-10T17:39:01.859Z,14.21
2019-05-10T17:41:36.522Z,14.26
2019-05-10T17:44:11.096Z,13.97
2019-05-10T17:46:44.805Z,13.99
2019-05-10T17:49:21.046Z,13.88
2019-05-10T17:51:58.444Z,13.93
2019-05-10T17:54:33.782Z,13.83
2019-05-10T17:57:10.866Z,13.82
2019-05-10T17:59:46.904Z,13.78
2019-05-10T18:02:22.679Z,13.80
2019-05-10T18:04:59.710Z,13.73
2019-05-10T18:07:31.876Z,13.60
2019-05-10T18:10:06.031Z,13.56
2019-05-10T18:12:39.781Z,13.53
2019-05-10T18:15:14.242Z,13.52
2019-05-10T18:17:48.023Z,13.43
2019-05-10T18:20:22.136Z,13.52
2019-05-10T18:22:55.789Z,13.34
2019-05-10T18:25:30.437Z,13.34
2019-05-10T18:28:05.005Z,13.20
2019-05-10T18:30:39.257Z,13.22
2019-05-10T18:33:14.526Z,13.00
2019-05-10T18:35:53.017Z,12.93
2019-05-10T18:38:25.439Z,12.78
2019-05-10T18:40:59.418Z,12.72
2019-05-10T18:43:35.291Z,12.53
2019-05-10T18:46:09.904Z,12.43
2019-05-10T18:48:44.000Z,12.33
2019-05-10T18:51:24.459Z,12.19
2019-05-10T18:53:54.514Z,12.08
2019-05-10T18:56:31.164Z,11.96
2019-05-10T18:59:09.273Z,11.86
2019-05-10T19:01:44.959Z,11.78
2019-05-10T19:04:18.669Z,11.74
2019-05-10T19:07:07.673Z,11.66
2019-05-10T19:09:36.587Z,11.53
2019-05-10T19:12:17.992Z,11.44
2019-05-10T19:14:48.173Z,11.43
2019-05-10T19:17:22.730Z,11.27
2019-05-10T19:19:57.956Z,11.22
2019-05-10T19:22:33.992Z,11.12
2019-05-10T19:25:14.239Z,11.05
2019-05-10T19:27:50.821Z,10.95
2019-05-10T19:30:23.481Z,10.88
2019-05-10T19:32:58.131Z,10.78
2019-05-10T19:35:35.708Z,10.68
2019-05-10T19:38:09.888Z,10.59
2019-05-10T19:40:44.770Z,10.50
2019-05-10T19:43:24.009Z,10.46
2019-05-10T19:46:00.211Z,10.36
2019-05-10T19:48:36.962Z,10.29
2019-05-10T19:51:12.559Z,10.22
2019-05-10T19:53:46.891Z,10.12
2019-05-10T19:56:23.104Z,10.06
2019-05-10T19:58:58.245Z,9.81
2019-05-10T20:01:32.202Z,9.47
2019-05-10T20:04:09.135Z,9.23
2019-05-10T20:06:41.732Z,9.22
2019-05-10T20:09:15.485Z,9.24
2019-05-10T20:11:50.495Z,9.22
2019-05-10T20:14:27.427Z,9.23
2019-05-10T20:17:02.487Z,9.18
2019-05-10T20:19:38.732Z,9.01
2019-05-10T20:22:13.698Z,9.02
2019-05-10T20:24:49.998Z,9.04
2019-05-10T20:27:24.577Z,9.15
2019-05-10T20:29:59.229Z,9.25
2019-05-10T20:32:34.304Z,9.31
2019-05-10T20:35:08.480Z,9.40
2019-05-10T20:37:42.492Z,9.48
2019-05-10T20:40:16.659Z,9.58
2019-05-10T20:42:50.548Z,9.59
2019-05-10T20:45:24.519Z,9.65
2019-05-10T20:47:58.553Z,9.64
2019-05-10T20:50:36.021Z,9.65
2019-05-10T20:53:10.298Z,9.68
2019-05-10T20:55:45.606Z,9.75
2019-05-10T20:58:19.481Z,9.78
2019-05-10T21:00:55.109Z,9.81
2019-05-10T21:03:29.953Z,9.83
2019-05-10T21:06:04.506Z,9.64
2019-05-10T21:08:38.803Z,9.79
2019-05-10T21:11:14.228Z,9.89
2019-05-10T21:13:47.896Z,9.84
2019-05-10T21:16:21.517Z,9.75
2019-05-10T21:18:55.247Z,9.83
2019-05-10T21:21:31.475Z,9.90
2019-05-10T21:24:05.633Z,9.88
2019-05-10T21:26:39.777Z,9.86
2019-05-10T21:29:14.189Z,9.67
2019-05-10T21:31:50.153Z,9.67
2019-05-10T21:34:24.259Z,9.74
2019-05-10T21:36:59.057Z,9.74
2019-05-10T21:39:33.861Z,9.76
2019-05-10T21:42:07.624Z,9.66
2019-05-10T21:44:41.379Z,9.40
2019-05-10T21:47:17.085Z,9.33
2019-05-10T21:49:52.559Z,9.38
2019-05-10T21:52:26.304Z,9.52
2019-05-10T21:55:00.066Z,9.49
2019-05-10T21:57:33.801Z,9.43
2019-05-10T22:00:08.913Z,9.48
2019-05-10T22:02:42.737Z,9.53
2019-05-10T22:05:16.493Z,9.64
2019-05-10T22:07:50.589Z,9.73
2019-05-10T22:10:24.300Z,9.73
2019-05-10T22:12:58.443Z,9.77
2019-05-10T22:15:32.089Z,9.83
2019-05-10T22:18:06.988Z,9.87
2019-05-10T22:20:40.712Z,9.87
2019-05-10T22:23:14.748Z,9.89
2019-05-10T22:25:51.339Z,9.91
2019-05-10T22:28:26.231Z,9.98
2019-05-10T22:31:01.067Z,10.05
2019-05-10T22:33:34.826Z,10.09
2019-05-10T22:36:08.615Z,10.08
2019-05-10T22:38:45.193Z,10.24
2019-05-10T22:41:18.809Z,10.32
2019-05-10T22:43:52.769Z,10.34
2019-05-10T22:46:27.507Z,10.24
2019-05-10T22:49:01.651Z,10.20
2019-05-10T22:51:35.331Z,10.08
2019-05-10T22:54:09.068Z,9.94
2019-05-10T22:56:42.785Z,9.81
2019-05-10T22:59:20.421Z,9.84
2019-05-10T23:01:54.637Z,9.86
2019-05-10T23:04:28.440Z,9.76
2019-05-10T23:07:03.421Z,9.70
2019-05-10T23:09:37.639Z,9.72
2019-05-10T23:12:12.994Z,9.77
2019-05-10T23:14:47.322Z,9.88
2019-05-10T23:17:21.357Z,9.78
2019-05-10T23:19:55.324Z,9.89
2019-05-10T23:22:29.121Z,9.94
2019-05-10T23:25:05.090Z,9.86
2019-05-10T23:27:40.638Z,9.60
2019-05-10T23:30:14.661Z,9.67
2019-05-10T23:32:49.013Z,9.80
2019-05-10T23:35:22.885Z,10.04
2019-05-10T23:37:57.953Z,9.78
2019-05-10T23:40:31.971Z,9.69
2019-05-10T23:43:05.944Z,9.78
2019-05-10T23:45:42.032Z,9.70
2019-05-10T23:48:16.048Z,9.64
2019-05-10T23:50:49.723Z,9.65
2019-05-10T23:53:23.665Z,9.79
2019-05-10T23:55:58.402Z,9.91
2019-05-10T23:58:32.209Z,9.93
